sensor_id;sensor_type;location;lat;lon;timestamp;pressure;altitude;pressure_sealevel;temperature;humidity
69239;BME280;56349;51.816;-0.026;2023-08-31T00:01:03;100356.38;;;26.49;27.94
69239;BME280;56349;51.816;-0.026;2023-08-31T00:03:30;100360.62;;;26.40;28.04
69239;BME280;56349;51.816;-0.026;2023-08-31T00:05:55;100365.07;;;26.32;28.14
69239;BME280;56349;51.816;-0.026;2023-08-31T00:08:21;100368.06;;;26.50;28.24
69239;BME280;56349;51.816;-0.026;2023-08-31T00:10:56;100366.19;;;26.42;28.33
69239;BME280;56349;51.816;-0.026;2023-08-31T00:13:12;100362.68;;;26.06;28.45
69239;BME280;56349;51.816;-0.026;2023-08-31T00:15:38;100362.38;;;25.97;28.53
69239;BME280;56349;51.816;-0.026;2023-08-31T00:18:05;100362.22;;;26.38;28.62
69239;BME280;56349;51.816;-0.026;2023-08-31T00:20:30;100367.04;;;26.09;28.69
69239;BME280;56349;51.816;-0.026;2023-08-31T00:22:55;100369.78;;;26.24;28.78
69239;BME280;56349;51.816;-0.026;2023-08-31T00:25:21;100367.74;;;25.96;28.84
69239;BME280;56349;51.816;-0.026;2023-08-31T00:27:47;100365.09;;;25.90;28.91
69239;BME280;56349;51.816;-0.026;2023-08-31T00:30:13;100364.84;;;26.06;28.97
69239;BME280;56349;51.816;-0.026;2023-08-31T00:32:39;100368.20;;;25.79;29.02
69239;BME280;56349;51.816;-0.026;2023-08-31T00:35:05;100368.86;;;25.73;29.06
69239;BME280;56349;51.816;-0.026;2023-08-31T00:37:30;100369.28;;;25.90;29.11
69239;BME280;56349;51.816;-0.026;2023-08-31T00:39:56;100365.28;;;25.85;29.15
69239;BME280;56349;51.816;-0.026;2023-08-31T00:42:22;100364.88;;;25.80;29.20
69239;BME280;56349;51.816;-0.026;2023-08-31T00:44:48;100368.67;;;25.77;29.21
69239;BME280;56349;51.816;-0.026;2023-08-31T00:47:15;100364.65;;;25.73;29.23
69239;BME280;56349;51.816;-0.026;2023-08-31T00:49:41;100362.75;;;25.69;29.26
69239;BME280;56349;51.816;-0.026;2023-08-31T00:52:06;100358.86;;;25.65;29.30
69239;BME280;56349;51.816;-0.026;2023-08-31T00:54:31;100353.86;;;25.61;29.33
69239;BME280;56349;51.816;-0.026;2023-08-31T00:56:57;100347.22;;;25.78;29.37
69239;BME280;56349;51.816;-0.026;2023-08-31T00:59:23;100345.90;;;25.52;29.40
69239;BME280;56349;51.816;-0.026;2023-08-31T01:01:54;100346.49;;;25.71;29.43
69239;BME280;56349;51.816;-0.026;2023-08-31T01:04:20;100351.94;;;25.44;29.45
69239;BME280;56349;51.816;-0.026;2023-08-31T01:06:49;100357.06;;;25.40;29.51
69239;BME280;56349;51.816;-0.026;2023-08-31T01:09:13;100358.26;;;25.36;29.54
69239;BME280;56349;51.816;-0.026;2023-08-31T01:11:40;100355.05;;;25.32;29.57
69239;BME280;56349;51.816;-0.026;2023-08-31T01:14:01;100356.29;;;25.51;29.59
69239;BME280;56349;51.816;-0.026;2023-08-31T01:16:23;100356.11;;;25.26;29.61
69239;BME280;56349;51.816;-0.026;2023-08-31T01:18:47;100353.35;;;25.24;29.65
69239;BME280;56349;51.816;-0.026;2023-08-31T01:21:24;100349.14;;;25.23;29.67
69239;BME280;56349;51.816;-0.026;2023-08-31T01:23:46;100346.00;;;25.19;29.72
69239;BME280;56349;51.816;-0.026;2023-08-31T01:26:04;100346.52;;;25.15;29.76
69239;BME280;56349;51.816;-0.026;2023-08-31T01:28:29;100347.38;;;25.34;29.79
69239;BME280;56349;51.816;-0.026;2023-08-31T01:30:55;100347.23;;;25.09;29.83
69239;BME280;56349;51.816;-0.026;2023-08-31T01:33:21;100346.18;;;25.28;29.86
69239;BME280;56349;51.816;-0.026;2023-08-31T01:35:49;100343.71;;;25.24;29.88
69239;BME280;56349;51.816;-0.026;2023-08-31T01:38:17;100343.25;;;25.21;29.94
69239;BME280;56349;51.816;-0.026;2023-08-31T01:40:42;100343.46;;;25.18;29.99
69239;BME280;56349;51.816;-0.026;2023-08-31T01:43:05;100344.26;;;25.14;30.02
69239;BME280;56349;51.816;-0.026;2023-08-31T01:45:30;100343.32;;;25.10;30.04
69239;BME280;56349;51.816;-0.026;2023-08-31T01:47:55;100346.79;;;24.86;30.08
69239;BME280;56349;51.816;-0.026;2023-08-31T01:50:21;100348.50;;;25.33;30.10
69239;BME280;56349;51.816;-0.026;2023-08-31T01:52:47;100342.31;;;25.04;30.12
69239;BME280;56349;51.816;-0.026;2023-08-31T01:55:13;100341.76;;;25.30;30.14
69239;BME280;56349;51.816;-0.026;2023-08-31T01:57:39;100341.11;;;25.01;30.16
69239;BME280;56349;51.816;-0.026;2023-08-31T02:00:06;100343.97;;;25.00;30.15
69239;BME280;56349;51.816;-0.026;2023-08-31T02:02:30;100343.10;;;24.97;30.21
69239;BME280;56349;51.816;-0.026;2023-08-31T02:04:56;100344.20;;;25.21;30.22
69239;BME280;56349;51.816;-0.026;2023-08-31T02:07:22;100343.10;;;24.72;30.24
69239;BME280;56349;51.816;-0.026;2023-08-31T02:09:48;100344.53;;;24.92;30.26
69239;BME280;56349;51.816;-0.026;2023-08-31T02:12:14;100345.73;;;24.90;30.28
69239;BME280;56349;51.816;-0.026;2023-08-31T02:14:40;100344.88;;;24.88;30.30
69239;BME280;56349;51.816;-0.026;2023-08-31T02:17:06;100347.20;;;24.87;30.32
69239;BME280;56349;51.816;-0.026;2023-08-31T02:19:32;100347.78;;;24.87;30.34
69239;BME280;56349;51.816;-0.026;2023-08-31T02:21:58;100351.75;;;24.85;30.35
69239;BME280;56349;51.816;-0.026;2023-08-31T02:24:24;100353.99;;;24.59;30.38
69239;BME280;56349;51.816;-0.026;2023-08-31T02:26:51;100355.44;;;24.79;30.40
69239;BME280;56349;51.816;-0.026;2023-08-31T02:29:16;100351.22;;;25.04;30.42
69239;BME280;56349;51.816;-0.026;2023-08-31T02:31:42;100349.97;;;24.75;30.42
69239;BME280;56349;51.816;-0.026;2023-08-31T02:34:08;100349.67;;;24.72;30.47
69239;BME280;56349;51.816;-0.026;2023-08-31T02:36:34;100353.61;;;24.70;30.51
69239;BME280;56349;51.816;-0.026;2023-08-31T02:39:00;100354.92;;;24.68;30.51
69239;BME280;56349;51.816;-0.026;2023-08-31T02:41:26;100350.52;;;24.44;30.54
69239;BME280;56349;51.816;-0.026;2023-08-31T02:43:52;100349.12;;;24.91;30.55
69239;BME280;56349;51.816;-0.026;2023-08-31T02:46:17;100351.60;;;24.63;30.59
69239;BME280;56349;51.816;-0.026;2023-08-31T02:48:44;100354.59;;;24.89;30.57
69239;BME280;56349;51.816;-0.026;2023-08-31T02:51:09;100356.46;;;24.61;30.58
69239;BME280;56349;51.816;-0.026;2023-08-31T02:53:35;100349.87;;;24.60;30.61
69239;BME280;56349;51.816;-0.026;2023-08-31T02:56:00;100348.31;;;24.58;30.61
69239;BME280;56349;51.816;-0.026;2023-08-31T02:58:26;100346.72;;;24.34;30.62
69239;BME280;56349;51.816;-0.026;2023-08-31T03:00:51;100349.38;;;24.81;30.64
69239;BME280;56349;51.816;-0.026;2023-08-31T03:03:17;100351.71;;;24.80;30.65
69239;BME280;56349;51.816;-0.026;2023-08-31T03:05:42;100347.95;;;24.78;30.69
69239;BME280;56349;51.816;-0.026;2023-08-31T03:08:07;100346.05;;;24.77;30.71
69239;BME280;56349;51.816;-0.026;2023-08-31T03:10:33;100345.52;;;24.75;30.72
69239;BME280;56349;51.816;-0.026;2023-08-31T03:12:59;100345.29;;;24.75;30.72
69239;BME280;56349;51.816;-0.026;2023-08-31T03:15:25;100343.17;;;24.73;30.72
69239;BME280;56349;51.816;-0.026;2023-08-31T03:17:51;100344.42;;;24.22;30.74
69239;BME280;56349;51.816;-0.026;2023-08-31T03:20:16;100346.67;;;24.22;30.76
69239;BME280;56349;51.816;-0.026;2023-08-31T03:22:42;100342.85;;;24.43;30.76
69239;BME280;56349;51.816;-0.026;2023-08-31T03:25:09;100342.85;;;24.41;30.77
69239;BME280;56349;51.816;-0.026;2023-08-31T03:27:35;100343.29;;;24.66;30.78
69239;BME280;56349;51.816;-0.026;2023-08-31T03:30:01;100340.37;;;24.36;30.84
69239;BME280;56349;51.816;-0.026;2023-08-31T03:32:26;100340.23;;;24.36;30.86
69239;BME280;56349;51.816;-0.026;2023-08-31T03:34:52;100344.44;;;24.68;30.90
69239;BME280;56349;51.816;-0.026;2023-08-31T03:37:18;100345.88;;;24.52;30.84
69239;BME280;56349;51.816;-0.026;2023-08-31T03:39:44;100349.28;;;24.66;30.76
69239;BME280;56349;51.816;-0.026;2023-08-31T03:42:09;100350.18;;;24.86;30.58
69239;BME280;56349;51.816;-0.026;2023-08-31T03:44:34;100346.48;;;24.87;30.40
69239;BME280;56349;51.816;-0.026;2023-08-31T03:46:59;100347.87;;;24.91;30.19
69239;BME280;56349;51.816;-0.026;2023-08-31T03:49:25;100345.64;;;25.38;29.92
69239;BME280;56349;51.816;-0.026;2023-08-31T03:51:51;100347.66;;;25.36;29.69
69239;BME280;56349;51.816;-0.026;2023-08-31T03:54:17;100348.71;;;25.71;29.48
69239;BME280;56349;51.816;-0.026;2023-08-31T03:56:43;100349.30;;;25.58;29.29
69239;BME280;56349;51.816;-0.026;2023-08-31T03:59:09;100349.84;;;25.84;29.17
69239;BME280;56349;51.816;-0.026;2023-08-31T04:01:35;100348.69;;;25.62;29.07
69239;BME280;56349;51.816;-0.026;2023-08-31T04:04:01;100349.15;;;25.60;29.04
69239;BME280;56349;51.816;-0.026;2023-08-31T04:06:27;100350.33;;;25.76;29.01
69239;BME280;56349;51.816;-0.026;2023-08-31T04:08:53;100351.91;;;25.48;29.01
69239;BME280;56349;51.816;-0.026;2023-08-31T04:11:19;100353.19;;;25.86;29.02
69239;BME280;56349;51.816;-0.026;2023-08-31T04:13:45;100356.46;;;25.57;29.04
69239;BME280;56349;51.816;-0.026;2023-08-31T04:16:11;100356.37;;;25.48;29.07
69239;BME280;56349;51.816;-0.026;2023-08-31T04:18:37;100354.19;;;25.40;29.11
69239;BME280;56349;51.816;-0.026;2023-08-31T04:21:03;100355.79;;;25.54;29.17
69239;BME280;56349;51.816;-0.026;2023-08-31T04:23:29;100354.46;;;25.24;29.22
69239;BME280;56349;51.816;-0.026;2023-08-31T04:25:55;100354.41;;;25.17;29.27
69239;BME280;56349;51.816;-0.026;2023-08-31T04:28:21;100355.47;;;25.32;29.33
69239;BME280;56349;51.816;-0.026;2023-08-31T04:30:47;100352.97;;;25.23;29.38
69239;BME280;56349;51.816;-0.026;2023-08-31T04:33:13;100355.31;;;25.43;29.44
69239;BME280;56349;51.816;-0.026;2023-08-31T04:35:39;100356.93;;;25.09;29.50
69239;BME280;56349;51.816;-0.026;2023-08-31T04:38:05;100356.37;;;25.29;29.56
69239;BME280;56349;51.816;-0.026;2023-08-31T04:40:31;100358.11;;;24.74;29.61
69239;BME280;56349;51.816;-0.026;2023-08-31T04:42:57;100360.25;;;24.91;29.66
69239;BME280;56349;51.816;-0.026;2023-08-31T04:45:23;100360.74;;;24.86;29.72
69239;BME280;56349;51.816;-0.026;2023-08-31T04:47:49;100363.81;;;25.07;29.78
69239;BME280;56349;51.816;-0.026;2023-08-31T04:50:15;100366.94;;;24.53;29.82
69239;BME280;56349;51.816;-0.026;2023-08-31T04:52:42;100365.94;;;24.71;29.86
69239;BME280;56349;51.816;-0.026;2023-08-31T04:55:08;100369.01;;;24.67;29.90
69239;BME280;56349;51.816;-0.026;2023-08-31T04:57:33;100367.38;;;24.63;29.93
69239;BME280;56349;51.816;-0.026;2023-08-31T04:59:59;100364.18;;;24.85;29.98
69239;BME280;56349;51.816;-0.026;2023-08-31T05:02:25;100364.58;;;24.53;30.04
69239;BME280;56349;51.816;-0.026;2023-08-31T05:04:51;100373.16;;;24.74;30.10
69239;BME280;56349;51.816;-0.026;2023-08-31T05:07:17;100377.63;;;24.42;30.15
69239;BME280;56349;51.816;-0.026;2023-08-31T05:09:43;100376.10;;;24.39;30.19
69239;BME280;56349;51.816;-0.026;2023-08-31T05:12:09;100374.71;;;24.60;30.23
69239;BME280;56349;51.816;-0.026;2023-08-31T05:14:35;100374.59;;;24.56;30.28
69239;BME280;56349;51.816;-0.026;2023-08-31T05:17:01;100370.53;;;24.53;30.30
69239;BME280;56349;51.816;-0.026;2023-08-31T05:19:29;100371.40;;;24.50;30.35
69239;BME280;56349;51.816;-0.026;2023-08-31T05:21:53;100368.92;;;24.47;30.38
69239;BME280;56349;51.816;-0.026;2023-08-31T05:24:19;100369.75;;;24.44;30.43
69239;BME280;56349;51.816;-0.026;2023-08-31T05:26:46;100369.63;;;24.42;30.43
69239;BME280;56349;51.816;-0.026;2023-08-31T05:29:11;100372.85;;;24.37;30.48
69239;BME280;56349;51.816;-0.026;2023-08-31T05:31:37;100380.04;;;24.34;30.54
69239;BME280;56349;51.816;-0.026;2023-08-31T05:34:03;100379.32;;;24.30;30.56
69239;BME280;56349;51.816;-0.026;2023-08-31T05:36:29;100383.14;;;24.28;30.59
69239;BME280;56349;51.816;-0.026;2023-08-31T05:38:55;100385.88;;;24.27;30.62
69239;BME280;56349;51.816;-0.026;2023-08-31T05:41:22;100387.26;;;24.25;30.64
69239;BME280;56349;51.816;-0.026;2023-08-31T05:43:48;100383.43;;;24.23;30.66
69239;BME280;56349;51.816;-0.026;2023-08-31T05:46:14;100375.84;;;24.22;30.69
69239;BME280;56349;51.816;-0.026;2023-08-31T05:48:40;100379.45;;;24.21;30.77
69239;BME280;56349;51.816;-0.026;2023-08-31T05:51:06;100376.77;;;24.21;30.73
69239;BME280;56349;51.816;-0.026;2023-08-31T05:53:32;100372.63;;;24.18;30.76
69239;BME280;56349;51.816;-0.026;2023-08-31T05:55:57;100374.48;;;24.16;30.77
69239;BME280;56349;51.816;-0.026;2023-08-31T05:58:23;100380.97;;;24.18;30.76
69239;BME280;56349;51.816;-0.026;2023-08-31T06:00:49;100384.49;;;24.59;30.79
69239;BME280;56349;51.816;-0.026;2023-08-31T06:03:15;100385.38;;;24.11;30.84
69239;BME280;56349;51.816;-0.026;2023-08-31T06:05:41;100384.42;;;24.09;30.87
69239;BME280;56349;51.816;-0.026;2023-08-31T06:08:07;100388.44;;;24.07;30.90
69239;BME280;56349;51.816;-0.026;2023-08-31T06:10:33;100391.47;;;24.05;30.91
69239;BME280;56349;51.816;-0.026;2023-08-31T06:12:59;100394.38;;;24.04;30.94
69239;BME280;56349;51.816;-0.026;2023-08-31T06:15:25;100398.94;;;24.46;30.98
69239;BME280;56349;51.816;-0.026;2023-08-31T06:17:51;100404.00;;;24.23;31.00
69239;BME280;56349;51.816;-0.026;2023-08-31T06:20:17;100405.07;;;24.00;31.05
69239;BME280;56349;51.816;-0.026;2023-08-31T06:22:43;100396.62;;;24.01;31.16
69239;BME280;56349;51.816;-0.026;2023-08-31T06:25:09;100395.87;;;24.07;31.36
69239;BME280;56349;51.816;-0.026;2023-08-31T06:27:35;100401.29;;;24.19;31.56
69239;BME280;56349;51.816;-0.026;2023-08-31T06:30:01;100407.76;;;24.36;31.76
69239;BME280;56349;51.816;-0.026;2023-08-31T06:32:27;100396.86;;;24.32;31.86
69239;BME280;56349;51.816;-0.026;2023-08-31T06:34:53;100396.43;;;24.60;31.76
69239;BME280;56349;51.816;-0.026;2023-08-31T06:37:19;100402.38;;;24.72;31.51
69239;BME280;56349;51.816;-0.026;2023-08-31T06:39:45;100403.11;;;25.08;31.24
69239;BME280;56349;51.816;-0.026;2023-08-31T06:42:11;100400.50;;;25.22;30.86
69239;BME280;56349;51.816;-0.026;2023-08-31T06:44:37;100407.49;;;25.82;30.50
69239;BME280;56349;51.816;-0.026;2023-08-31T06:47:03;100412.08;;;25.69;30.12
69239;BME280;56349;51.816;-0.026;2023-08-31T06:49:28;100412.46;;;26.03;29.77
69239;BME280;56349;51.816;-0.026;2023-08-31T06:51:54;100410.95;;;26.35;29.40
69239;BME280;56349;51.816;-0.026;2023-08-31T06:54:20;100412.31;;;26.45;29.04
69239;BME280;56349;51.816;-0.026;2023-08-31T06:56:46;100416.42;;;26.77;28.67
69239;BME280;56349;51.816;-0.026;2023-08-31T06:59:12;100415.26;;;26.78;28.35
69239;BME280;56349;51.816;-0.026;2023-08-31T07:01:38;100415.01;;;27.05;27.98
69239;BME280;56349;51.816;-0.026;2023-08-31T07:04:05;100415.65;;;27.29;27.67
69239;BME280;56349;51.816;-0.026;2023-08-31T07:06:33;100412.34;;;27.30;27.38
69239;BME280;56349;51.816;-0.026;2023-08-31T07:08:55;100409.99;;;27.74;27.12
69239;BME280;56349;51.816;-0.026;2023-08-31T07:11:21;100412.46;;;27.51;26.85
69239;BME280;56349;51.816;-0.026;2023-08-31T07:13:47;100414.27;;;27.73;26.57
69239;BME280;56349;51.816;-0.026;2023-08-31T07:16:13;100416.72;;;27.92;26.34
69239;BME280;56349;51.816;-0.026;2023-08-31T07:18:39;100418.09;;;28.10;26.10
69239;BME280;56349;51.816;-0.026;2023-08-31T07:21:05;100414.35;;;28.26;25.88
69239;BME280;56349;51.816;-0.026;2023-08-31T07:23:31;100415.03;;;28.42;25.67
69239;BME280;56349;51.816;-0.026;2023-08-31T07:25:57;100410.53;;;28.56;25.47
69239;BME280;56349;51.816;-0.026;2023-08-31T07:28:23;100411.84;;;28.42;25.31
69239;BME280;56349;51.816;-0.026;2023-08-31T07:30:49;100413.89;;;28.56;25.16
69239;BME280;56349;51.816;-0.026;2023-08-31T07:33:15;100414.14;;;28.66;25.01
69239;BME280;56349;51.816;-0.026;2023-08-31T07:35:41;100413.41;;;28.53;24.89
69239;BME280;56349;51.816;-0.026;2023-08-31T07:38:06;100414.31;;;28.87;24.77
69239;BME280;56349;51.816;-0.026;2023-08-31T07:40:32;100414.42;;;28.74;24.65
69239;BME280;56349;51.816;-0.026;2023-08-31T07:42:58;100412.22;;;28.83;24.54
69239;BME280;56349;51.816;-0.026;2023-08-31T07:45:24;100408.11;;;28.91;24.44
69239;BME280;56349;51.816;-0.026;2023-08-31T07:47:50;100406.76;;;28.97;24.32
69239;BME280;56349;51.816;-0.026;2023-08-31T07:50:17;100408.85;;;29.02;24.18
69239;BME280;56349;51.816;-0.026;2023-08-31T07:52:43;100411.33;;;29.08;24.27
69239;BME280;56349;51.816;-0.026;2023-08-31T07:55:09;100413.27;;;29.14;24.41
69239;BME280;56349;51.816;-0.026;2023-08-31T07:57:35;100413.58;;;29.20;24.36
69239;BME280;56349;51.816;-0.026;2023-08-31T08:00:01;100417.88;;;29.29;24.30
69239;BME280;56349;51.816;-0.026;2023-08-31T08:02:27;100417.74;;;29.34;24.21
69239;BME280;56349;51.816;-0.026;2023-08-31T08:04:53;100415.23;;;29.40;24.18
69239;BME280;56349;51.816;-0.026;2023-08-31T08:07:19;100414.32;;;28.98;24.11
69239;BME280;56349;51.816;-0.026;2023-08-31T08:09:44;100411.40;;;29.51;24.10
69239;BME280;56349;51.816;-0.026;2023-08-31T08:12:10;100409.06;;;29.55;24.17
69239;BME280;56349;51.816;-0.026;2023-08-31T08:14:36;100407.51;;;29.33;24.16
69239;BME280;56349;51.816;-0.026;2023-08-31T08:17:02;100401.08;;;29.16;24.11
69239;BME280;56349;51.816;-0.026;2023-08-31T08:19:27;100399.07;;;29.20;24.11
69239;BME280;56349;51.816;-0.026;2023-08-31T08:21:53;100400.73;;;29.65;24.13
69239;BME280;56349;51.816;-0.026;2023-08-31T08:24:18;100400.20;;;29.55;24.12
69239;BME280;56349;51.816;-0.026;2023-08-31T08:29:10;100402.21;;;29.22;24.22
69239;BME280;56349;51.816;-0.026;2023-08-31T08:31:35;100404.47;;;29.02;24.29
69239;BME280;56349;51.816;-0.026;2023-08-31T08:34:01;100405.73;;;28.98;24.43
69239;BME280;56349;51.816;-0.026;2023-08-31T08:36:27;100406.72;;;28.72;24.59
69239;BME280;56349;51.816;-0.026;2023-08-31T08:38:53;100402.96;;;28.44;24.76
69239;BME280;56349;51.816;-0.026;2023-08-31T08:41:23;100407.82;;;28.19;24.93
69239;BME280;56349;51.816;-0.026;2023-08-31T08:43:47;100415.56;;;28.20;25.12
69239;BME280;56349;51.816;-0.026;2023-08-31T08:46:10;100416.28;;;27.96;25.32
69239;BME280;56349;51.816;-0.026;2023-08-31T08:48:37;100415.37;;;28.16;25.52
69239;BME280;56349;51.816;-0.026;2023-08-31T08:51:03;100413.34;;;27.94;25.67
69239;BME280;56349;51.816;-0.026;2023-08-31T08:53:27;100410.59;;;27.71;25.83
69239;BME280;56349;51.816;-0.026;2023-08-31T08:55:53;100406.51;;;27.49;25.97
69239;BME280;56349;51.816;-0.026;2023-08-31T08:58:19;100402.45;;;27.29;26.10
69239;BME280;56349;51.816;-0.026;2023-08-31T09:00:46;100399.80;;;27.12;26.24
69239;BME280;56349;51.816;-0.026;2023-08-31T09:03:11;100403.35;;;27.42;26.39
69239;BME280;56349;51.816;-0.026;2023-08-31T09:05:38;100410.09;;;26.77;26.55
69239;BME280;56349;51.816;-0.026;2023-08-31T09:08:05;100412.85;;;26.88;26.71
69239;BME280;56349;51.816;-0.026;2023-08-31T09:10:34;100414.10;;;26.96;26.83
69239;BME280;56349;51.816;-0.026;2023-08-31T09:12:54;100414.15;;;26.80;26.93
69239;BME280;56349;51.816;-0.026;2023-08-31T09:15:20;100414.49;;;26.65;27.09
69239;BME280;56349;51.816;-0.026;2023-08-31T09:17:46;100412.93;;;26.51;27.23
69239;BME280;56349;51.816;-0.026;2023-08-31T09:20:12;100410.00;;;26.37;27.37
69239;BME280;56349;51.816;-0.026;2023-08-31T09:22:42;100409.03;;;26.25;27.48
69239;BME280;56349;51.816;-0.026;2023-08-31T09:25:05;100413.32;;;26.12;27.60
69239;BME280;56349;51.816;-0.026;2023-08-31T09:27:31;100412.01;;;26.49;27.72
69239;BME280;56349;51.816;-0.026;2023-08-31T09:29:57;100409.53;;;25.89;27.83
69239;BME280;56349;51.816;-0.026;2023-08-31T09:32:22;100410.26;;;26.08;27.96
69239;BME280;56349;51.816;-0.026;2023-08-31T09:34:48;100404.93;;;26.00;28.13
69239;BME280;56349;51.816;-0.026;2023-08-31T09:37:16;100406.19;;;26.14;28.26
69239;BME280;56349;51.816;-0.026;2023-08-31T09:39:39;100401.70;;;25.84;28.34
69239;BME280;56349;51.816;-0.026;2023-08-31T09:42:04;100400.78;;;25.99;28.43
69239;BME280;56349;51.816;-0.026;2023-08-31T09:44:29;100401.00;;;25.93;28.49
69239;BME280;56349;51.816;-0.026;2023-08-31T09:46:55;100401.19;;;25.65;28.54
69239;BME280;56349;51.816;-0.026;2023-08-31T09:49:21;100400.79;;;25.81;28.61
69239;BME280;56349;51.816;-0.026;2023-08-31T09:51:49;100400.41;;;25.74;28.67
69239;BME280;56349;51.816;-0.026;2023-08-31T09:54:14;100398.71;;;25.67;28.73
69239;BME280;56349;51.816;-0.026;2023-08-31T09:56:40;100396.85;;;25.60;28.80
69239;BME280;56349;51.816;-0.026;2023-08-31T09:59:03;100396.92;;;25.53;28.87
69239;BME280;56349;51.816;-0.026;2023-08-31T10:01:29;100399.18;;;25.45;29.03
69239;BME280;56349;51.816;-0.026;2023-08-31T10:03:55;100401.44;;;25.41;29.10
69239;BME280;56349;51.816;-0.026;2023-08-31T10:06:21;100401.47;;;25.36;29.17
69239;BME280;56349;51.816;-0.026;2023-08-31T10:08:46;100404.12;;;25.30;29.23
69239;BME280;56349;51.816;-0.026;2023-08-31T10:11:13;100403.58;;;25.24;29.31
69239;BME280;56349;51.816;-0.026;2023-08-31T10:13:38;100401.99;;;25.42;29.36
69239;BME280;56349;51.816;-0.026;2023-08-31T10:16:04;100403.56;;;25.14;29.42
69239;BME280;56349;51.816;-0.026;2023-08-31T10:18:31;100402.97;;;25.33;29.46
69239;BME280;56349;51.816;-0.026;2023-08-31T10:20:55;100400.50;;;25.06;29.52
69239;BME280;56349;51.816;-0.026;2023-08-31T10:23:20;100397.97;;;25.50;29.56
69239;BME280;56349;51.816;-0.026;2023-08-31T10:28:16;100394.91;;;24.93;29.68
69239;BME280;56349;51.816;-0.026;2023-08-31T10:30:36;100394.88;;;25.14;29.71
69239;BME280;56349;51.816;-0.026;2023-08-31T10:40:18;100390.13;;;25.09;30.16
69239;BME280;56349;51.816;-0.026;2023-08-31T10:42:45;100390.67;;;25.11;30.30
69239;BME280;56349;51.816;-0.026;2023-08-31T10:45:12;100386.31;;;24.91;30.52
69239;BME280;56349;51.816;-0.026;2023-08-31T10:47:37;100383.20;;;24.92;30.59
69239;BME280;56349;51.816;-0.026;2023-08-31T10:52:27;100383.85;;;25.16;30.69
69239;BME280;56349;51.816;-0.026;2023-08-31T10:54:55;100383.95;;;25.17;30.58
69239;BME280;56349;51.816;-0.026;2023-08-31T10:57:29;100382.66;;;25.18;30.60
69239;BME280;56349;51.816;-0.026;2023-08-31T10:59:47;100381.13;;;25.16;30.57
69239;BME280;56349;51.816;-0.026;2023-08-31T11:09:27;100385.67;;;25.15;30.62
69239;BME280;56349;51.816;-0.026;2023-08-31T11:11:53;100386.49;;;24.95;30.59
69239;BME280;56349;51.816;-0.026;2023-08-31T11:14:18;100387.75;;;25.19;30.59
69239;BME280;56349;51.816;-0.026;2023-08-31T11:16:44;100384.54;;;25.20;30.58
69239;BME280;56349;51.816;-0.026;2023-08-31T11:19:10;100382.55;;;25.20;30.57
69239;BME280;56349;51.816;-0.026;2023-08-31T11:21:37;100379.93;;;24.96;30.58
69239;BME280;56349;51.816;-0.026;2023-08-31T11:24:01;100380.86;;;24.94;30.58
69239;BME280;56349;51.816;-0.026;2023-08-31T11:26:31;100379.78;;;25.16;30.57
69239;BME280;56349;51.816;-0.026;2023-08-31T11:28:56;100378.30;;;25.14;30.58
69239;BME280;56349;51.816;-0.026;2023-08-31T11:31:24;100376.00;;;25.14;30.59
69239;BME280;56349;51.816;-0.026;2023-08-31T11:33:47;100379.11;;;25.38;30.60
69239;BME280;56349;51.816;-0.026;2023-08-31T11:36:11;100380.41;;;25.10;30.60
69239;BME280;56349;51.816;-0.026;2023-08-31T11:38:36;100378.81;;;25.08;30.61
69239;BME280;56349;51.816;-0.026;2023-08-31T11:41:02;100379.61;;;25.32;30.62
69239;BME280;56349;51.816;-0.026;2023-08-31T11:43:28;100377.37;;;24.81;30.63
69239;BME280;56349;51.816;-0.026;2023-08-31T11:45:54;100377.59;;;25.02;30.64
69239;BME280;56349;51.816;-0.026;2023-08-31T11:48:20;100374.25;;;24.78;30.65
69239;BME280;56349;51.816;-0.026;2023-08-31T11:50:45;100376.36;;;25.24;30.68
69239;BME280;56349;51.816;-0.026;2023-08-31T11:53:10;100380.45;;;24.97;30.69
69239;BME280;56349;51.816;-0.026;2023-08-31T11:55:36;100382.72;;;24.96;30.71
69239;BME280;56349;51.816;-0.026;2023-08-31T11:58:02;100381.59;;;24.96;30.71
69239;BME280;56349;51.816;-0.026;2023-08-31T12:00:28;100379.76;;;25.23;30.70
69239;BME280;56349;51.816;-0.026;2023-08-31T12:02:56;100376.35;;;24.96;30.70
69239;BME280;56349;51.816;-0.026;2023-08-31T12:05:20;100371.15;;;25.23;30.70
69239;BME280;56349;51.816;-0.026;2023-08-31T12:07:46;100365.30;;;24.97;30.71
69239;BME280;56349;51.816;-0.026;2023-08-31T12:10:14;100359.05;;;24.98;30.70
69239;BME280;56349;51.816;-0.026;2023-08-31T12:12:38;100358.70;;;25.25;30.70
69239;BME280;56349;51.816;-0.026;2023-08-31T12:15:06;100355.20;;;25.00;30.70
69239;BME280;56349;51.816;-0.026;2023-08-31T12:17:29;100353.57;;;25.00;30.70
69239;BME280;56349;51.816;-0.026;2023-08-31T12:20:02;100347.73;;;25.02;30.67
69239;BME280;56349;51.816;-0.026;2023-08-31T12:22:21;100349.27;;;24.79;30.68
69239;BME280;56349;51.816;-0.026;2023-08-31T12:24:47;100347.06;;;25.01;30.66
69239;BME280;56349;51.816;-0.026;2023-08-31T12:27:12;100343.29;;;25.01;30.65
69239;BME280;56349;51.816;-0.026;2023-08-31T12:29:38;100340.69;;;25.00;30.66
69239;BME280;56349;51.816;-0.026;2023-08-31T12:32:05;100336.94;;;24.78;30.66
69239;BME280;56349;51.816;-0.026;2023-08-31T12:34:30;100334.22;;;25.25;30.67
69239;BME280;56349;51.816;-0.026;2023-08-31T12:36:56;100331.05;;;24.77;30.66
69239;BME280;56349;51.816;-0.026;2023-08-31T12:39:21;100330.13;;;25.26;30.66
69239;BME280;56349;51.816;-0.026;2023-08-31T12:41:47;100336.01;;;24.99;30.66
69239;BME280;56349;51.816;-0.026;2023-08-31T12:44:13;100340.71;;;25.25;30.68
69239;BME280;56349;51.816;-0.026;2023-08-31T12:46:39;100340.81;;;24.97;30.68
69239;BME280;56349;51.816;-0.026;2023-08-31T12:49:05;100340.84;;;24.98;30.69
69239;BME280;56349;51.816;-0.026;2023-08-31T12:51:31;100337.57;;;24.98;30.68
69239;BME280;56349;51.816;-0.026;2023-08-31T12:53:57;100336.10;;;24.98;30.67